createdAt,value
2022-12-18T00:01:34.165Z,17.23
2022-12-18T00:04:04.496Z,15.57
2022-12-18T00:06:33.727Z,16.90
2022-12-18T00:09:02.107Z,15.25
2022-12-18T00:11:31.240Z,15.57
2022-12-18T00:13:59.927Z,15.88
2022-12-18T00:16:29.014Z,17.00
2022-12-18T00:19:00.528Z,17.20
2022-12-18T00:21:29.231Z,14.93
2022-12-18T00:23:57.487Z,14.75
2022-12-18T00:26:31.203Z,14.95
2022-12-18T00:29:01.800Z,15.30
2022-12-18T00:31:31.730Z,15.23
2022-12-18T00:34:00.167Z,15.88
2022-12-18T00:36:30.246Z,14.73
2022-12-18T00:38:59.268Z,15.32
2022-12-18T00:41:45.977Z,17.07
2022-12-18T00:44:16.214Z,14.60
2022-12-18T00:46:44.754Z,16.50
2022-12-18T00:49:12.929Z,16.02
2022-12-18T00:51:40.547Z,19.62
2022-12-18T00:54:08.518Z,17.27
2022-12-18T00:56:45.737Z,19.23
2022-12-18T00:59:18.108Z,19.73
2022-12-18T01:01:45.945Z,17.77
2022-12-18T01:04:14.103Z,14.32
2022-12-18T01:06:42.038Z,15.90
2022-12-18T01:09:09.570Z,14.35
2022-12-18T01:11:37.701Z,14.50
2022-12-18T01:14:05.804Z,14.98
2022-12-18T01:16:33.407Z,15.55
2022-12-18T01:19:01.038Z,16.80
2022-12-18T01:21:29.016Z,15.63
2022-12-18T01:23:57.400Z,15.55
2022-12-18T01:26:25.985Z,15.20
2022-12-18T01:28:55.834Z,15.95
2022-12-18T01:31:26.885Z,14.60
2022-12-18T01:33:56.228Z,14.07
2022-12-18T01:36:29.764Z,15.45
2022-12-18T01:39:00.097Z,16.27
2022-12-18T01:41:53.251Z,15.60
2022-12-18T01:44:55.667Z,14.50
2022-12-18T01:47:30.267Z,13.85
2022-12-18T01:50:00.699Z,14.38
2022-12-18T01:52:30.364Z,14.73
2022-12-18T01:54:58.298Z,15.32
2022-12-18T01:57:28.308Z,15.40
2022-12-18T01:59:58.938Z,14.45
2022-12-18T02:02:30.269Z,15.02
2022-12-18T02:04:59.708Z,15.10
2022-12-18T02:07:36.293Z,14.95
2022-12-18T02:10:30.408Z,14.00
2022-12-18T02:13:12.986Z,14.52
2022-12-18T02:15:46.432Z,15.57
2022-12-18T02:18:22.685Z,14.18
2022-12-18T02:20:55.551Z,16.00
2022-12-18T02:23:47.347Z,18.03
2022-12-18T02:26:21.054Z,12.80
2022-12-18T02:28:56.483Z,15.27
2022-12-18T02:31:31.155Z,16.92
2022-12-18T02:34:01.605Z,14.80
2022-12-18T02:36:29.628Z,14.23
2022-12-18T02:38:58.120Z,15.57
2022-12-18T02:41:26.566Z,15.02
2022-12-18T02:44:00.665Z,14.85
2022-12-18T02:46:41.736Z,13.93
2022-12-18T02:49:27.134Z,15.77
2022-12-18T02:52:19.982Z,14.23
2022-12-18T02:54:51.372Z,15.40
2022-12-18T02:57:26.470Z,16.37
2022-12-18T03:00:01.647Z,15.00
2022-12-18T03:02:40.899Z,14.43
2022-12-18T03:05:23.230Z,14.00
2022-12-18T03:07:57.955Z,14.48
2022-12-18T03:10:31.207Z,14.27
2022-12-18T03:13:27.485Z,14.93
2022-12-18T03:15:56.675Z,16.67
2022-12-18T03:18:43.914Z,14.60
2022-12-18T03:21:12.300Z,14.30
2022-12-18T03:23:48.087Z,14.60
2022-12-18T03:26:20.326Z,13.88
2022-12-18T03:28:53.604Z,17.60
2022-12-18T03:31:23.601Z,15.45
2022-12-18T03:33:57.289Z,19.80
2022-12-18T03:36:26.061Z,17.17
2022-12-18T03:38:54.080Z,13.88
2022-12-18T03:41:31.629Z,16.80
2022-12-18T03:44:14.879Z,16.95
2022-12-18T03:46:58.170Z,14.65
2022-12-18T03:49:31.607Z,13.60
2022-12-18T03:52:12.621Z,15.13
2022-12-18T03:54:42.748Z,14.63
2022-12-18T03:57:15.368Z,15.52
2022-12-18T03:59:44.407Z,15.55
2022-12-18T04:02:16.004Z,16.40
2022-12-18T04:04:44.399Z,16.02
2022-12-18T04:07:13.161Z,15.20
2022-12-18T04:09:41.918Z,15.23
2022-12-18T04:12:10.103Z,16.73
2022-12-18T04:14:37.914Z,15.20
2022-12-18T04:17:06.111Z,17.98
2022-12-18T04:19:34.006Z,15.50
2022-12-18T04:22:02.257Z,16.58
2022-12-18T04:24:31.757Z,16.20
2022-12-18T04:27:02.440Z,17.62
2022-12-18T04:29:31.385Z,15.52
2022-12-18T04:31:58.910Z,16.40
2022-12-18T04:34:27.140Z,16.73
2022-12-18T04:36:54.757Z,15.55
2022-12-18T04:39:22.666Z,17.23
2022-12-18T04:41:50.846Z,16.15
2022-12-18T04:44:18.743Z,15.60
2022-12-18T04:46:46.238Z,16.40
2022-12-18T04:49:14.123Z,16.33
2022-12-18T04:51:41.765Z,16.17
2022-12-18T04:54:09.231Z,16.55
2022-12-18T04:56:36.996Z,16.47
2022-12-18T04:59:04.485Z,15.93
2022-12-18T05:01:34.805Z,16.40
2022-12-18T05:04:04.755Z,15.50
2022-12-18T05:06:32.379Z,16.20
2022-12-18T05:08:59.917Z,16.37
2022-12-18T05:11:27.680Z,16.80
2022-12-18T05:13:56.591Z,15.68
2022-12-18T05:16:24.244Z,16.12
2022-12-18T05:18:52.017Z,17.52
2022-12-18T05:21:20.356Z,15.80
2022-12-18T05:23:47.919Z,17.33
2022-12-18T05:26:18.380Z,16.45
2022-12-18T05:28:46.931Z,16.85
2022-12-18T05:31:14.942Z,17.67
2022-12-18T05:33:43.125Z,17.90
2022-12-18T05:36:11.035Z,17.60
2022-12-18T05:38:39.364Z,16.77
2022-12-18T05:41:08.169Z,17.37
2022-12-18T05:43:37.630Z,18.62
2022-12-18T05:46:07.627Z,16.57
2022-12-18T05:48:35.599Z,18.85
2022-12-18T05:51:15.558Z,17.73
2022-12-18T05:53:44.118Z,16.67
2022-12-18T05:56:15.710Z,17.40
2022-12-18T05:58:43.930Z,18.00
2022-12-18T06:01:16.041Z,16.70
2022-12-18T06:03:44.213Z,18.55
2022-12-18T06:06:19.906Z,18.05
2022-12-18T06:08:47.768Z,18.98
2022-12-18T06:11:18.509Z,17.87
2022-12-18T06:13:46.440Z,19.85
2022-12-18T06:16:14.223Z,18.83
2022-12-18T06:18:41.822Z,18.98
2022-12-18T06:21:09.515Z,19.27
2022-12-18T06:23:37.620Z,19.20
2022-12-18T06:26:10.693Z,20.80
2022-12-18T06:28:38.715Z,20.33
2022-12-18T06:31:07.205Z,19.77
2022-12-18T06:33:35.576Z,20.35
2022-12-18T06:36:08.413Z,21.63
2022-12-18T06:38:37.676Z,20.98
2022-12-18T06:41:17.115Z,22.98
2022-12-18T06:43:45.118Z,24.50
2022-12-18T06:46:13.586Z,20.10
2022-12-18T06:48:41.308Z,22.00
2022-12-18T06:51:08.840Z,21.45
2022-12-18T06:53:36.703Z,20.58
2022-12-18T06:56:10.171Z,20.77
2022-12-18T06:58:39.990Z,19.48
2022-12-18T07:01:11.398Z,19.20
2022-12-18T07:03:43.584Z,20.73
2022-12-18T07:06:16.950Z,22.58
2022-12-18T07:08:45.357Z,23.90
2022-12-18T07:11:13.566Z,20.70
2022-12-18T07:13:41.520Z,19.87
2022-12-18T07:16:22.596Z,18.77
2022-12-18T07:18:53.000Z,18.98
2022-12-18T07:21:22.075Z,17.83
2022-12-18T07:23:49.759Z,19.10
2022-12-18T07:26:19.796Z,18.80
2022-12-18T07:28:47.872Z,19.15
2022-12-18T07:31:18.212Z,19.10
2022-12-18T07:33:46.684Z,21.08
2022-12-18T07:36:14.980Z,21.02
2022-12-18T07:38:42.592Z,22.20
2022-12-18T07:41:12.701Z,20.77
2022-12-18T07:43:42.045Z,21.90
2022-12-18T07:46:10.734Z,20.88
2022-12-18T07:48:49.523Z,21.48
2022-12-18T07:51:19.069Z,22.10
2022-12-18T07:53:49.328Z,22.33
2022-12-18T07:56:29.384Z,22.40
2022-12-18T07:58:59.606Z,22.77
2022-12-18T08:01:27.407Z,21.23
2022-12-18T08:03:55.554Z,19.58
2022-12-18T08:06:24.240Z,19.15
2022-12-18T08:08:56.542Z,22.77
2022-12-18T08:11:26.585Z,20.62
2022-12-18T08:13:54.362Z,23.33
2022-12-18T08:16:22.910Z,20.00
2022-12-18T08:18:52.251Z,21.95
2022-12-18T08:21:24.034Z,19.85
2022-12-18T08:23:55.276Z,23.80
2022-12-18T08:26:23.431Z,21.53
2022-12-18T08:28:51.860Z,20.95
2022-12-18T08:31:20.038Z,21.33
2022-12-18T08:33:53.269Z,22.55
2022-12-18T08:36:22.197Z,22.37
2022-12-18T08:38:49.857Z,20.97
2022-12-18T08:41:19.066Z,19.52
2022-12-18T08:44:05.724Z,21.52
2022-12-18T08:46:38.050Z,19.87
2022-12-18T08:49:06.658Z,21.15
2022-12-18T08:51:35.078Z,20.37
2022-12-18T08:54:04.477Z,20.25
2022-12-18T08:56:35.193Z,20.75
2022-12-18T08:59:03.788Z,20.98
2022-12-18T09:01:31.550Z,21.10
2022-12-18T09:03:59.951Z,20.13
2022-12-18T09:06:27.719Z,18.90
2022-12-18T09:08:55.291Z,22.20
2022-12-18T09:11:25.607Z,22.33
2022-12-18T09:13:53.921Z,21.37
2022-12-18T09:16:25.988Z,22.63
2022-12-18T09:19:00.590Z,24.48
2022-12-18T09:21:32.306Z,23.15
2022-12-18T09:24:02.669Z,22.42
2022-12-18T09:26:30.240Z,21.33
2022-12-18T09:28:58.031Z,21.10
2022-12-18T09:31:25.929Z,20.55
2022-12-18T09:33:53.457Z,20.05
2022-12-18T09:36:21.032Z,18.87
2022-12-18T09:38:49.743Z,19.80
2022-12-18T09:41:48.988Z,17.77
2022-12-18T09:44:18.968Z,18.17
2022-12-18T09:47:34.748Z,17.80
2022-12-18T09:50:06.131Z,16.83
2022-12-18T09:52:45.611Z,19.27
2022-12-18T09:55:16.385Z,18.33
2022-12-18T09:57:49.192Z,17.58
2022-12-18T10:00:20.699Z,16.52
2022-12-18T10:02:49.238Z,16.02
2022-12-18T10:05:21.555Z,15.60
2022-12-18T10:08:14.226Z,16.40
2022-12-18T10:10:54.229Z,18.02
2022-12-18T10:13:31.156Z,19.75
2022-12-18T10:16:13.965Z,19.12
2022-12-18T10:19:33.213Z,15.63
2022-12-18T10:22:18.971Z,13.90
2022-12-18T10:25:27.408Z,16.20
2022-12-18T10:27:59.116Z,15.25
2022-12-18T10:30:28.087Z,14.77
2022-12-18T10:32:57.173Z,16.12
2022-12-18T10:35:27.819Z,13.97
2022-12-18T10:38:03.023Z,13.77
2022-12-18T10:40:31.135Z,18.15
2022-12-18T10:43:15.669Z,15.23
2022-12-18T10:45:43.652Z,14.32
2022-12-18T10:48:23.745Z,16.70
2022-12-18T10:53:44.020Z,19.83
2022-12-18T10:56:12.082Z,17.10
2022-12-18T10:58:41.083Z,18.17
2022-12-18T11:01:13.314Z,17.60
2022-12-18T11:03:42.384Z,20.70
2022-12-18T11:06:15.206Z,27.85
2022-12-18T11:08:45.096Z,20.02
2022-12-18T11:11:23.489Z,20.62
2022-12-18T11:13:59.345Z,25.03
2022-12-18T11:16:28.222Z,19.20
2022-12-18T11:19:29.963Z,17.15
2022-12-18T11:21:57.823Z,16.25
2022-12-18T11:24:30.516Z,17.35
2022-12-18T11:27:00.123Z,18.10
2022-12-18T11:29:32.656Z,14.10
2022-12-18T11:32:15.665Z,12.48
2022-12-18T11:34:47.123Z,14.10
2022-12-18T11:37:16.362Z,12.52
2022-12-18T11:39:50.427Z,14.03
2022-12-18T11:42:22.717Z,15.25
2022-12-18T11:45:27.153Z,19.15
2022-12-18T11:48:07.087Z,15.30
2022-12-18T11:50:56.797Z,14.48
2022-12-18T11:53:26.525Z,13.73
2022-12-18T11:56:03.474Z,15.35
2022-12-18T11:58:45.105Z,16.27
2022-12-18T12:01:44.843Z,15.57
2022-12-18T12:04:41.384Z,15.23
2022-12-18T12:07:42.190Z,13.17
2022-12-18T12:10:49.055Z,17.58
2022-12-18T12:13:36.174Z,15.27
2022-12-18T12:16:16.163Z,12.80
2022-12-18T12:19:03.311Z,17.83
2022-12-18T12:21:41.312Z,15.33
2022-12-18T12:24:21.817Z,20.35
2022-12-18T12:27:29.431Z,17.27
2022-12-18T12:30:21.474Z,15.45
2022-12-18T12:33:15.305Z,13.68
2022-12-18T12:36:10.101Z,18.57
2022-12-18T12:38:49.760Z,15.48
2022-12-18T12:41:41.343Z,14.57
2022-12-18T12:44:13.816Z,20.80
2022-12-18T12:46:43.067Z,15.38
2022-12-18T12:49:15.113Z,13.53
2022-12-18T12:51:53.886Z,20.60
2022-12-18T12:54:24.853Z,25.35
2022-12-18T12:57:09.991Z,17.52
2022-12-18T12:59:43.479Z,14.73
2022-12-18T13:02:17.061Z,13.67
2022-12-18T13:04:51.588Z,13.93
2022-12-18T13:07:37.093Z,13.50
2022-12-18T13:10:43.567Z,12.05
2022-12-18T13:13:13.533Z,12.73
2022-12-18T13:15:47.677Z,13.83
2022-12-18T13:18:26.305Z,12.68
2022-12-18T13:21:03.245Z,11.52
2022-12-18T13:23:37.951Z,14.87
2022-12-18T13:26:11.525Z,11.82
2022-12-18T13:28:48.370Z,14.07
2022-12-18T13:31:42.538Z,13.88
2022-12-18T13:34:28.288Z,14.15
2022-12-18T13:37:00.537Z,11.40
2022-12-18T13:39:36.110Z,13.27
2022-12-18T13:42:07.423Z,12.77
2022-12-18T13:44:40.637Z,15.30
2022-12-18T13:47:32.900Z,14.63
2022-12-18T13:50:01.616Z,15.43
2022-12-18T13:52:36.087Z,16.67
2022-12-18T13:55:06.821Z,18.20
2022-12-18T13:57:39.324Z,35.58
2022-12-18T14:00:25.762Z,20.83
2022-12-18T14:02:54.081Z,13.82
2022-12-18T14:05:33.447Z,24.08
2022-12-18T14:08:13.999Z,15.37
2022-12-18T14:10:48.370Z,16.52
2022-12-18T14:13:25.625Z,27.45
2022-12-18T14:15:53.727Z,27.25
2022-12-18T14:18:35.152Z,22.98
2022-12-18T14:21:07.015Z,17.10
2022-12-18T14:23:42.092Z,16.77
2022-12-18T14:26:23.801Z,14.65
2022-12-18T14:28:52.016Z,16.77
2022-12-18T14:31:25.418Z,19.73
2022-12-18T14:33:54.323Z,25.97
2022-12-18T14:36:27.200Z,19.77
2022-12-18T14:38:57.187Z,35.30
2022-12-18T14:41:25.321Z,22.10
2022-12-18T14:43:54.991Z,29.58
2022-12-18T14:46:38.916Z,29.20
2022-12-18T14:49:28.514Z,27.13
2022-12-18T14:52:29.113Z,23.48
2022-12-18T14:54:56.601Z,32.83
2022-12-18T14:57:36.230Z,43.20
2022-12-18T15:00:12.363Z,77.47
2022-12-18T15:02:40.363Z,60.47
2022-12-18T15:05:13.943Z,42.30
2022-12-18T15:07:50.652Z,36.33
2022-12-18T15:10:21.083Z,52.20
2022-12-18T15:12:51.267Z,40.00
2022-12-18T15:15:34.666Z,27.27
2022-12-18T15:18:08.840Z,42.45
2022-12-18T15:20:45.604Z,37.17
2022-12-18T15:23:23.833Z,47.47
2022-12-18T15:26:01.530Z,49.47
2022-12-18T15:28:38.053Z,47.00
2022-12-18T15:31:09.855Z,43.20
2022-12-18T15:33:45.181Z,35.30
2022-12-18T15:36:15.409Z,42.03
2022-12-18T15:38:48.305Z,32.37
2022-12-18T15:41:22.936Z,31.25
2022-12-18T15:43:53.482Z,23.27
2022-12-18T15:46:25.154Z,23.20
2022-12-18T15:49:01.760Z,21.08
2022-12-18T15:51:33.860Z,19.37
2022-12-18T15:54:06.325Z,22.25
2022-12-18T15:56:53.150Z,25.45
2022-12-18T15:59:21.833Z,31.45
2022-12-18T16:01:51.418Z,31.83
2022-12-18T16:04:21.695Z,35.53
2022-12-18T16:09:38.068Z,31.98
2022-12-18T16:12:07.723Z,29.35
2022-12-18T16:14:35.356Z,27.25
2022-12-18T16:17:06.896Z,23.73
2022-12-18T16:19:34.616Z,25.33
2022-12-18T16:22:03.714Z,27.05
2022-12-18T16:24:33.629Z,26.45
2022-12-18T16:27:01.294Z,25.02
2022-12-18T16:29:29.945Z,25.70
2022-12-18T16:31:59.451Z,25.27
2022-12-18T16:34:35.678Z,27.67
2022-12-18T16:37:06.881Z,26.12
2022-12-18T16:39:35.655Z,24.70
2022-12-18T16:42:11.044Z,26.70
2022-12-18T16:44:39.270Z,27.77
2022-12-18T16:47:07.030Z,25.92
2022-12-18T16:49:38.236Z,26.30
2022-12-18T16:52:07.040Z,31.37
2022-12-18T16:54:36.730Z,27.27
2022-12-18T16:57:05.533Z,24.65
2022-12-18T16:59:34.752Z,26.00
2022-12-18T17:02:02.523Z,32.35
2022-12-18T17:04:30.183Z,34.20
2022-12-18T17:06:59.314Z,32.20
2022-12-18T17:09:27.059Z,32.65
2022-12-18T17:11:55.349Z,33.60
2022-12-18T17:14:24.753Z,33.25
2022-12-18T17:17:19.874Z,31.87
2022-12-18T17:19:41.764Z,30.53
2022-12-18T17:22:09.580Z,33.97
2022-12-18T17:24:37.549Z,37.33
2022-12-18T17:27:05.640Z,38.30
2022-12-18T17:29:33.575Z,41.67
2022-12-18T17:32:01.344Z,42.87
2022-12-18T17:34:30.028Z,39.85
2022-12-18T17:36:58.567Z,37.65
2022-12-18T17:39:26.224Z,35.45
2022-12-18T17:41:54.446Z,31.58
2022-12-18T17:44:22.396Z,31.23
2022-12-18T17:46:50.230Z,29.40
2022-12-18T17:49:18.468Z,28.83
2022-12-18T17:51:46.345Z,26.95
2022-12-18T17:54:14.187Z,25.10
2022-12-18T17:56:42.317Z,26.93
2022-12-18T17:59:10.640Z,24.52
2022-12-18T18:01:44.417Z,25.17
2022-12-18T18:04:13.918Z,25.73
2022-12-18T18:06:42.050Z,27.67
2022-12-18T18:09:15.618Z,27.37
2022-12-18T18:12:04.260Z,26.73
2022-12-18T18:14:32.392Z,24.45
2022-12-18T18:17:04.442Z,25.25
2022-12-18T18:19:33.616Z,24.65
2022-12-18T18:22:02.922Z,24.40
2022-12-18T18:24:31.179Z,23.92
2022-12-18T18:27:00.135Z,25.77
2022-12-18T18:29:32.558Z,26.62
2022-12-18T18:32:00.412Z,25.60
2022-12-18T18:34:30.436Z,28.93
2022-12-18T18:36:58.197Z,28.92
2022-12-18T18:39:25.945Z,30.77
2022-12-18T18:41:54.003Z,30.05
2022-12-18T18:44:25.628Z,31.85
2022-12-18T18:46:57.818Z,34.03
2022-12-18T18:49:27.546Z,29.87
2022-12-18T18:51:57.143Z,30.20
2022-12-18T18:54:25.725Z,41.35
2022-12-18T18:57:19.580Z,43.20
2022-12-18T18:59:42.237Z,45.17
2022-12-18T19:02:13.316Z,41.47
2022-12-18T19:04:46.153Z,41.28
2022-12-18T19:07:25.394Z,40.33
2022-12-18T19:10:04.264Z,40.65
2022-12-18T19:12:53.311Z,37.07
2022-12-18T19:15:23.017Z,36.55
2022-12-18T19:17:50.838Z,35.97
2022-12-18T19:20:19.500Z,39.00
2022-12-18T19:22:54.356Z,36.75
2022-12-18T19:25:38.061Z,38.10
2022-12-18T19:28:19.962Z,36.00
2022-12-18T19:30:50.770Z,37.92
2022-12-18T19:36:12.910Z,35.47
2022-12-18T19:38:44.117Z,35.73
2022-12-18T19:41:14.823Z,33.60
2022-12-18T19:43:43.861Z,33.40
2022-12-18T19:46:14.587Z,36.85
2022-12-18T19:48:44.337Z,34.28
2022-12-18T19:51:24.527Z,32.63
2022-12-18T19:53:58.087Z,33.45
2022-12-18T19:56:29.566Z,34.00
2022-12-18T19:58:57.746Z,34.92
2022-12-18T20:01:26.172Z,33.13
2022-12-18T20:03:55.894Z,32.50
2022-12-18T20:06:32.789Z,35.97
2022-12-18T20:09:03.896Z,33.17
2022-12-18T20:11:32.987Z,34.35
2022-12-18T20:14:01.155Z,33.83
2022-12-18T20:16:29.036Z,34.23
2022-12-18T20:18:56.968Z,31.05
2022-12-18T20:21:25.574Z,32.55
2022-12-18T20:23:54.849Z,31.20
2022-12-18T20:26:24.024Z,32.85
2022-12-18T20:28:52.592Z,33.90
2022-12-18T20:31:20.526Z,36.10
2022-12-18T20:33:49.984Z,34.63
2022-12-18T20:36:23.545Z,33.78
2022-12-18T20:38:57.152Z,35.85
2022-12-18T20:41:37.342Z,38.10
2022-12-18T20:44:21.854Z,36.22
2022-12-18T20:46:55.171Z,35.72
2022-12-18T20:49:24.768Z,36.45
2022-12-18T20:51:54.673Z,38.30
2022-12-18T20:54:25.021Z,45.43
2022-12-18T20:56:53.752Z,42.72
2022-12-18T20:59:23.195Z,41.20
2022-12-18T21:01:52.420Z,41.83
2022-12-18T21:04:21.448Z,41.75
2022-12-18T21:06:53.392Z,39.07
2022-12-18T21:09:23.880Z,41.80
2022-12-18T21:12:13.924Z,41.97
2022-12-18T21:14:42.938Z,38.85
2022-12-18T21:17:11.174Z,39.47
2022-12-18T21:19:39.084Z,40.17
2022-12-18T21:22:08.198Z,40.22
2022-12-18T21:24:35.903Z,39.17
2022-12-18T21:27:04.369Z,38.50
2022-12-18T21:29:33.196Z,40.50
2022-12-18T21:32:00.771Z,41.97
2022-12-18T21:34:29.784Z,39.15
2022-12-18T21:36:59.480Z,44.20
2022-12-18T21:39:28.734Z,38.85
2022-12-18T21:42:15.509Z,38.97
2022-12-18T21:44:45.191Z,35.67
2022-12-18T21:47:23.007Z,36.72
2022-12-18T21:49:52.883Z,39.05
2022-12-18T21:52:31.779Z,41.67
2022-12-18T21:55:07.995Z,40.65
2022-12-18T21:57:38.602Z,36.40
2022-12-18T22:00:07.105Z,35.95
2022-12-18T22:02:39.817Z,39.65
2022-12-18T22:05:08.211Z,41.50
2022-12-18T22:07:36.652Z,42.25
2022-12-18T22:10:04.406Z,41.80
2022-12-18T22:12:43.096Z,41.17
2022-12-18T22:15:21.489Z,39.33
2022-12-18T22:17:50.948Z,41.13
2022-12-18T22:20:20.245Z,40.80
2022-12-18T22:22:48.809Z,37.20
2022-12-18T22:25:16.714Z,36.58
2022-12-18T22:28:04.742Z,42.38
2022-12-18T22:30:32.970Z,38.80
2022-12-18T22:33:00.467Z,39.55
2022-12-18T22:35:28.006Z,33.93
2022-12-18T22:37:55.944Z,32.42
2022-12-18T22:40:27.061Z,32.22
2022-12-18T22:42:54.738Z,31.58
2022-12-18T22:45:22.519Z,34.60
2022-12-18T22:47:50.308Z,34.57
2022-12-18T22:50:17.880Z,36.15
2022-12-18T22:52:45.853Z,29.42
2022-12-18T22:55:13.381Z,29.92
2022-12-18T22:57:42.094Z,29.52
2022-12-18T23:00:23.780Z,29.83
2022-12-18T23:03:00.173Z,28.48
2022-12-18T23:05:30.319Z,29.10
2022-12-18T23:07:58.622Z,29.05
2022-12-18T23:10:26.772Z,31.02
2022-12-18T23:12:54.867Z,30.27
2022-12-18T23:15:28.152Z,30.52
2022-12-18T23:17:58.047Z,30.05
2022-12-18T23:20:26.884Z,30.35
2022-12-18T23:22:54.405Z,29.70
2022-12-18T23:25:22.246Z,30.93
2022-12-18T23:27:50.452Z,31.70
2022-12-18T23:30:17.987Z,31.95
2022-12-18T23:32:45.803Z,32.42
2022-12-18T23:35:14.227Z,32.53
2022-12-18T23:38:00.564Z,31.40
2022-12-18T23:40:29.602Z,35.70
2022-12-18T23:42:57.324Z,32.33
2022-12-18T23:45:24.771Z,32.78
2022-12-18T23:47:52.516Z,33.38
2022-12-18T23:50:24.045Z,30.57
2022-12-18T23:52:57.470Z,28.55
2022-12-18T23:55:32.347Z,28.67
2022-12-18T23:58:00.123Z,28.67
